Time,TemperatureF,DewpointF,PressureIn,WindDirection,WindDirectionDegrees,WindSpeedMPH,WindSpeedGustMPH,Humidity,HourlyPrecipIn,Conditions,Clouds,dailyrainin,SoftwareType,DateUTC
2013-03-16 00:00:00,60.8,51.0,29.56,WNW,303,5.0,-999.0,51,0.00,,,0.00,Custom/Perl,2013-03-16 05:00:00,
2013-03-16 00:06:00,60.4,50.8,29.57,West,266,3.0,-999.0,52,0.00,,,0.00,Custom/Perl,2013-03-16 05:06:00,
2013-03-16 00:11:00,60.0,50.6,29.57,NNW,347,6.0,-999.0,53,0.00,,,0.00,Custom/Perl,2013-03-16 05:11:00,
2013-03-16 00:16:00,59.5,50.5,29.58,North,3,6.0,-999.0,55,0.00,,,0.00,Custom/Perl,2013-03-16 05:16:00,
2013-03-16 00:21:00,58.7,49.9,29.58,NW,324,2.0,-999.0,56,0.00,,,0.00,Custom/Perl,2013-03-16 05:21:00,
2013-03-16 00:27:00,57.9,49.5,29.58,NW,316,3.0,-999.0,58,0.00,,,0.00,Custom/Perl,2013-03-16 05:27:00,
2013-03-16 00:32:00,57.2,49.2,29.58,NW,322,2.0,-999.0,60,0.00,,,0.00,Custom/Perl,2013-03-16 05:32:00,
2013-03-16 00:37:00,56.6,49.0,29.58,NW,313,4.0,-999.0,62,0.00,,,0.00,Custom/Perl,2013-03-16 05:37:00,
2013-03-16 00:43:00,56.0,48.6,29.58,NNW,345,4.0,-999.0,63,0.00,,,0.00,Custom/Perl,2013-03-16 05:43:00,
2013-03-16 00:48:00,55.6,48.4,29.59,NNW,328,8.0,-999.0,64,0.00,,,0.00,Custom/Perl,2013-03-16 05:48:00,
2013-03-16 00:53:00,55.2,48.2,29.59,North,354,3.0,-999.0,65,0.00,,,0.00,Custom/Perl,2013-03-16 05:53:00,
2013-03-16 00:58:00,54.9,47.9,29.60,NW,314,3.0,-999.0,65,0.00,,,0.00,Custom/Perl,2013-03-16 05:58:00,
2013-03-16 01:04:00,54.6,47.8,29.60,NNW,333,6.0,-999.0,66,0.00,,,0.00,Custom/Perl,2013-03-16 06:04:00,
2013-03-16 01:09:00,54.2,47.6,29.61,NW,318,3.0,-999.0,67,0.00,,,0.00,Custom/Perl,2013-03-16 06:09:00,
2013-03-16 01:14:00,53.8,47.4,29.61,WNW,300,4.0,-999.0,68,0.00,,,0.00,Custom/Perl,2013-03-16 06:14:00,
2013-03-16 01:20:00,53.2,47.0,29.61,WNW,302,2.0,-999.0,69,0.00,,,0.00,Custom/Perl,2013-03-16 06:20:00,
2013-03-16 01:25:00,52.7,46.9,29.61,WNW,286,8.0,-999.0,71,0.00,,,0.00,Custom/Perl,2013-03-16 06:25:00,
2013-03-16 01:30:00,52.2,46.6,29.62,NNW,345,6.0,-999.0,72,0.00,,,0.00,Custom/Perl,2013-03-16 06:30:00,
2013-03-16 01:36:00,51.8,46.4,29.62,NW,315,7.0,-999.0,73,0.00,,,0.00,Custom/Perl,2013-03-16 06:36:00,
2013-03-16 01:41:00,51.4,46.2,29.62,NW,318,3.0,-999.0,74,0.00,,,0.00,Custom/Perl,2013-03-16 06:41:00,
2013-03-16 01:46:00,51.0,45.8,29.63,NNW,340,3.0,-999.0,74,0.00,,,0.00,Custom/Perl,2013-03-16 06:46:00,
2013-03-16 01:51:00,50.6,45.6,29.63,NW,312,5.0,-999.0,75,0.00,,,0.00,Custom/Perl,2013-03-16 06:51:00,
2013-03-16 01:58:00,50.3,45.5,29.62,North,8,5.0,-999.0,76,0.00,,,0.00,Custom/Perl,2013-03-16 06:58:00,
2013-03-16 02:03:00,49.9,45.1,29.63,WNW,302,3.0,-999.0,76,0.00,,,0.00,Custom/Perl,2013-03-16 07:03:00,
2013-03-16 02:08:00,49.6,44.8,29.63,WNW,301,8.0,-999.0,76,0.00,,,0.00,Custom/Perl,2013-03-16 07:08:00,
2013-03-16 02:13:00,49.4,44.6,29.63,NW,323,5.0,-999.0,76,0.00,,,0.00,Custom/Perl,2013-03-16 07:13:00,
2013-03-16 02:19:00,49.1,44.3,29.63,NW,314,7.0,-999.0,76,0.00,,,0.00,Custom/Perl,2013-03-16 07:19:00,
2013-03-16 02:24:00,48.8,44.0,29.64,NW,320,5.0,-999.0,76,0.00,,,0.00,Custom/Perl,2013-03-16 07:24:00,
2013-03-16 02:29:00,48.5,43.7,29.64,NW,316,5.0,-999.0,76,0.00,,,0.00,Custom/Perl,2013-03-16 07:29:00,
2013-03-16 02:34:00,48.2,43.6,29.64,NW,319,5.0,-999.0,77,0.00,,,0.00,Custom/Perl,2013-03-16 07:34:00,
2013-03-16 02:40:00,47.9,43.3,29.64,NW,314,5.0,-999.0,77,0.00,,,0.00,Custom/Perl,2013-03-16 07:40:00,
2013-03-16 02:45:00,47.6,43.0,29.65,NW,314,6.0,-999.0,77,0.00,,,0.00,Custom/Perl,2013-03-16 07:45:00,
2013-03-16 02:50:00,47.3,42.9,29.65,NW,322,4.0,-999.0,78,0.00,,,0.00,Custom/Perl,2013-03-16 07:50:00,
2013-03-16 02:56:00,46.9,42.5,29.65,WNW,286,3.0,-999.0,78,0.00,,,0.00,Custom/Perl,2013-03-16 07:56:00,
2013-03-16 03:02:00,46.5,42.3,29.65,NW,307,3.0,-999.0,79,0.00,,,0.00,Custom/Perl,2013-03-16 08:02:00,
2013-03-16 03:07:00,46.2,42.0,29.65,NW,311,3.0,-999.0,79,0.00,,,0.00,Custom/Perl,2013-03-16 08:07:00,
2013-03-16 03:12:00,45.9,41.7,29.66,NW,321,2.0,-999.0,79,0.00,,,0.00,Custom/Perl,2013-03-16 08:12:00,
2013-03-16 03:17:00,45.5,41.3,29.66,NNW,328,3.0,-999.0,79,0.00,,,0.00,Custom/Perl,2013-03-16 08:17:00,
2013-03-16 03:23:00,45.3,41.3,29.66,ENE,58,4.0,-999.0,80,0.00,,,0.00,Custom/Perl,2013-03-16 08:23:00,
2013-03-16 03:28:00,45.1,41.1,29.66,NNE,15,2.0,-999.0,80,0.00,,,0.00,Custom/Perl,2013-03-16 08:28:00,
2013-03-16 03:33:00,44.9,40.9,29.66,WNW,285,2.0,-999.0,80,0.00,,,0.00,Custom/Perl,2013-03-16 08:33:00,
2013-03-16 03:38:00,44.7,40.9,29.66,NNW,328,3.0,-999.0,81,0.00,,,0.00,Custom/Perl,2013-03-16 08:38:00,
2013-03-16 03:44:00,44.5,40.7,29.66,NNW,329,1.0,-999.0,81,0.00,,,0.00,Custom/Perl,2013-03-16 08:44:00,
2013-03-16 03:49:00,44.3,40.5,29.66,North,11,3.0,-999.0,81,0.00,,,0.00,Custom/Perl,2013-03-16 08:49:00,
2013-03-16 03:54:00,44.0,40.2,29.67,NW,316,1.0,-999.0,81,0.00,,,0.00,Custom/Perl,2013-03-16 08:54:00,
2013-03-16 03:59:00,43.7,40.1,29.67,North,349,1.0,-999.0,82,0.00,,,0.00,Custom/Perl,2013-03-16 08:59:00,
2013-03-16 04:05:00,43.4,39.8,29.67,NNE,25,4.0,-999.0,82,0.00,,,0.00,Custom/Perl,2013-03-16 09:05:00,
2013-03-16 04:10:00,43.3,39.9,29.67,North,4,1.0,-999.0,83,0.00,,,0.00,Custom/Perl,2013-03-16 09:10:00,
2013-03-16 04:15:00,43.2,39.8,29.68,NW,326,3.0,-999.0,83,0.00,,,0.00,Custom/Perl,2013-03-16 09:15:00,
2013-03-16 04:20:00,43.1,39.7,29.68,NE,55,2.0,-999.0,83,0.00,,,0.00,Custom/Perl,2013-03-16 09:20:00,
2013-03-16 04:26:00,42.8,39.4,29.68,North,6,2.0,-999.0,83,0.00,,,0.00,Custom/Perl,2013-03-16 09:26:00,
2013-03-16 04:31:00,42.5,39.1,29.69,WNW,301,2.0,-999.0,83,0.00,,,0.00,Custom/Perl,2013-03-16 09:31:00,
2013-03-16 04:36:00,42.2,39.0,29.69,NW,311,5.0,-999.0,84,0.00,,,0.00,Custom/Perl,2013-03-16 09:36:00,
2013-03-16 04:41:00,41.9,38.7,29.70,NNE,13,7.0,-999.0,84,0.00,,,0.00,Custom/Perl,2013-03-16 09:41:00,
2013-03-16 04:47:00,41.5,38.3,29.70,North,357,2.0,-999.0,84,0.00,,,0.00,Custom/Perl,2013-03-16 09:47:00,
2013-03-16 04:52:00,41.1,38.1,29.70,NW,319,4.0,-999.0,85,0.00,,,0.00,Custom/Perl,2013-03-16 09:52:00,
2013-03-16 04:57:00,40.7,37.7,29.72,NNW,335,9.0,-999.0,85,0.00,,,0.00,Custom/Perl,2013-03-16 09:57:00,
2013-03-16 05:02:00,40.5,37.7,29.72,West,264,1.0,-999.0,86,0.00,,,0.00,Custom/Perl,2013-03-16 10:02:00,
2013-03-16 05:08:00,40.3,37.5,29.72,NNE,24,3.0,-999.0,86,0.00,,,0.00,Custom/Perl,2013-03-16 10:08:00,
2013-03-16 05:13:00,40.2,37.6,29.73,North,349,3.0,-999.0,87,0.00,,,0.00,Custom/Perl,2013-03-16 10:13:00,
2013-03-16 05:18:00,40.1,37.7,29.73,NNE,14,6.0,-999.0,88,0.00,,,0.00,Custom/Perl,2013-03-16 10:18:00,
2013-03-16 05:23:00,40.2,37.8,29.73,NW,324,7.0,-999.0,88,0.00,,,0.00,Custom/Perl,2013-03-16 10:23:00,
2013-03-16 05:29:00,40.2,37.6,29.73,NW,321,8.0,-999.0,87,0.00,,,0.00,Custom/Perl,2013-03-16 10:29:00,
2013-03-16 05:34:00,40.1,37.5,29.73,West,280,8.0,-999.0,87,0.00,,,0.00,Custom/Perl,2013-03-16 10:34:00,
2013-03-16 05:39:00,40.0,37.4,29.74,ENE,63,4.0,-999.0,87,0.00,,,0.00,Custom/Perl,2013-03-16 10:39:00,
2013-03-16 05:44:00,39.9,37.3,29.75,NW,316,7.0,-999.0,87,0.00,,,0.00,Custom/Perl,2013-03-16 10:44:00,
2013-03-16 05:50:00,39.9,37.3,29.75,NNW,342,5.0,-999.0,87,0.00,,,0.00,Custom/Perl,2013-03-16 10:50:00,
2013-03-16 05:55:00,39.9,37.3,29.75,NNE,29,12.0,-999.0,87,0.00,,,0.00,Custom/Perl,2013-03-16 10:55:00,
2013-03-16 06:01:00,39.9,37.3,29.75,NNW,329,5.0,-999.0,87,0.00,,,0.00,Custom/Perl,2013-03-16 11:01:00,
2013-03-16 06:06:00,39.9,37.3,29.75,North,8,4.0,-999.0,87,0.00,,,0.00,Custom/Perl,2013-03-16 11:06:00,
2013-03-16 06:11:00,39.9,37.3,29.76,NNW,333,4.0,-999.0,87,0.00,,,0.00,Custom/Perl,2013-03-16 11:11:00,
2013-03-16 06:16:00,39.9,37.1,29.76,NNE,23,5.0,-999.0,86,0.00,,,0.00,Custom/Perl,2013-03-16 11:16:00,
2013-03-16 06:21:00,39.9,37.1,29.77,NE,51,2.0,-999.0,86,0.00,,,0.00,Custom/Perl,2013-03-16 11:21:00,
2013-03-16 06:26:00,40.0,37.2,29.77,East,84,5.0,-999.0,86,0.00,,,0.00,Custom/Perl,2013-03-16 11:26:00,
2013-03-16 06:32:00,40.0,37.2,29.78,NW,323,2.0,-999.0,86,0.00,,,0.00,Custom/Perl,2013-03-16 11:32:00,
2013-03-16 06:37:00,40.0,37.0,29.79,NW,324,3.0,-999.0,85,0.00,,,0.00,Custom/Perl,2013-03-16 11:37:00,
2013-03-16 06:42:00,40.0,37.0,29.79,NE,36,10.0,-999.0,85,0.00,,,0.00,Custom/Perl,2013-03-16 11:42:00,
2013-03-16 06:47:00,40.0,37.0,29.78,NNW,331,5.0,-999.0,85,0.00,,,0.00,Custom/Perl,2013-03-16 11:47:00,
2013-03-16 06:53:00,39.9,36.9,29.77,NNW,332,6.0,-999.0,85,0.00,,,0.00,Custom/Perl,2013-03-16 11:53:00,
2013-03-16 06:58:00,39.9,36.9,29.78,NNE,25,6.0,-999.0,85,0.00,,,0.00,Custom/Perl,2013-03-16 11:58:00,
2013-03-16 07:03:00,39.9,36.9,29.78,NE,53,3.0,-999.0,85,0.00,,,0.00,Custom/Perl,2013-03-16 12:03:00,
2013-03-16 07:08:00,39.9,36.9,29.77,North,356,8.0,-999.0,85,0.00,,,0.00,Custom/Perl,2013-03-16 12:08:00,
2013-03-16 07:14:00,39.8,36.8,29.76,NNE,32,10.0,-999.0,85,0.00,,,0.00,Custom/Perl,2013-03-16 12:14:00,
2013-03-16 07:19:00,39.8,36.8,29.76,NE,44,4.0,-999.0,85,0.00,,,0.00,Custom/Perl,2013-03-16 12:19:00,
2013-03-16 07:24:00,39.8,36.8,29.77,ENE,60,4.0,-999.0,85,0.00,,,0.00,Custom/Perl,2013-03-16 12:24:00,
2013-03-16 07:30:00,39.8,36.8,29.78,WNW,300,2.0,-999.0,85,0.00,,,0.00,Custom/Perl,2013-03-16 12:30:00,
2013-03-16 07:35:00,39.9,36.9,29.79,WNW,298,7.0,-999.0,85,0.00,,,0.00,Custom/Perl,2013-03-16 12:35:00,
2013-03-16 07:40:00,39.9,36.9,29.78,North,355,5.0,-999.0,85,0.00,,,0.00,Custom/Perl,2013-03-16 12:40:00,
2013-03-16 07:45:00,39.9,36.9,29.78,NNE,17,9.0,-999.0,85,0.00,,,0.00,Custom/Perl,2013-03-16 12:45:00,
2013-03-16 07:51:00,39.9,36.9,29.79,North,2,6.0,-999.0,85,0.00,,,0.00,Custom/Perl,2013-03-16 12:51:00,
2013-03-16 07:56:00,39.9,36.7,29.79,NNE,26,5.0,-999.0,84,0.00,,,0.00,Custom/Perl,2013-03-16 12:56:00,
2013-03-16 08:02:00,39.9,36.7,29.79,North,360,6.0,-999.0,84,0.00,,,0.00,Custom/Perl,2013-03-16 13:02:00,
2013-03-16 08:07:00,39.9,36.7,29.79,NE,47,7.0,-999.0,84,0.00,,,0.00,Custom/Perl,2013-03-16 13:07:00,
2013-03-16 08:13:00,39.9,36.9,29.80,ENE,63,2.0,-999.0,85,0.00,,,0.00,Custom/Perl,2013-03-16 13:13:00,
2013-03-16 08:18:00,39.9,36.7,29.80,NNW,338,2.0,-999.0,84,0.00,,,0.00,Custom/Perl,2013-03-16 13:18:00,
2013-03-16 08:23:00,40.0,36.8,29.81,NNE,13,5.0,-999.0,84,0.00,,,0.00,Custom/Perl,2013-03-16 13:23:00,
2013-03-16 08:28:00,40.1,36.5,29.81,WSW,252,7.0,-999.0,82,0.00,,,0.00,Custom/Perl,2013-03-16 13:28:00,
2013-03-16 08:34:00,39.9,36.3,29.81,NW,312,2.0,-999.0,82,0.00,,,0.00,Custom/Perl,2013-03-16 13:34:00,
2013-03-16 08:39:00,39.9,36.3,29.81,North,6,4.0,-999.0,82,0.00,,,0.00,Custom/Perl,2013-03-16 13:39:00,
2013-03-16 08:44:00,39.9,36.3,29.81,NNE,27,3.0,-999.0,82,0.00,,,0.00,Custom/Perl,2013-03-16 13:44:00,
2013-03-16 08:50:00,39.9,36.3,29.82,NNW,344,6.0,-999.0,82,0.00,,,0.00,Custom/Perl,2013-03-16 13:50:00,
2013-03-16 08:55:00,40.0,36.4,29.81,NE,40,6.0,-999.0,82,0.00,,,0.00,Custom/Perl,2013-03-16 13:55:00,
2013-03-16 09:00:00,39.9,36.3,29.82,NNE,30,4.0,-999.0,82,0.00,,,0.00,Custom/Perl,2013-03-16 14:00:00,
2013-03-16 09:05:00,39.9,36.5,29.82,NW,320,4.0,-999.0,83,0.00,,,0.00,Custom/Perl,2013-03-16 14:05:00,
2013-03-16 09:11:00,40.1,36.7,29.82,ENE,72,5.0,-999.0,83,0.00,,,0.00,Custom/Perl,2013-03-16 14:11:00,
2013-03-16 09:16:00,40.2,36.6,29.83,NNE,20,7.0,-999.0,82,0.00,,,0.00,Custom/Perl,2013-03-16 14:16:00,
2013-03-16 09:21:00,40.2,36.6,29.82,NW,304,5.0,-999.0,82,0.00,,,0.00,Custom/Perl,2013-03-16 14:21:00,
2013-03-16 09:27:00,40.2,36.6,29.83,NE,53,4.0,-999.0,82,0.00,,,0.00,Custom/Perl,2013-03-16 14:27:00,
2013-03-16 09:32:00,40.2,36.4,29.84,NNW,338,1.0,-999.0,81,0.00,,,0.00,Custom/Perl,2013-03-16 14:32:00,
2013-03-16 09:37:00,40.1,36.3,29.84,West,270,4.0,-999.0,81,0.00,,,0.00,Custom/Perl,2013-03-16 14:37:00,
2013-03-16 09:43:00,40.1,36.3,29.85,ENE,57,8.0,-999.0,81,0.00,,,0.00,Custom/Perl,2013-03-16 14:43:00,
2013-03-16 09:48:00,39.9,36.1,29.86,NW,309,4.0,-999.0,81,0.00,,,0.00,Custom/Perl,2013-03-16 14:48:00,
2013-03-16 09:53:00,39.8,36.2,29.85,NW,319,3.0,-999.0,82,0.00,,,0.00,Custom/Perl,2013-03-16 14:53:00,
2013-03-16 09:58:00,39.7,36.1,29.85,NNE,22,4.0,-999.0,82,0.00,,,0.00,Custom/Perl,2013-03-16 14:58:00,
2013-03-16 10:04:00,39.8,36.2,29.85,East,87,4.0,-999.0,82,0.00,,,0.00,Custom/Perl,2013-03-16 15:04:00,
2013-03-16 10:09:00,40.1,36.3,29.85,NNW,339,5.0,-999.0,81,0.00,,,0.00,Custom/Perl,2013-03-16 15:09:00,
2013-03-16 10:14:00,40.1,36.1,29.86,NW,309,3.0,-999.0,80,0.00,,,0.00,Custom/Perl,2013-03-16 15:14:00,
2013-03-16 10:20:00,40.0,36.0,29.86,ENE,65,4.0,-999.0,80,0.00,,,0.00,Custom/Perl,2013-03-16 15:20:00,
2013-03-16 10:25:00,40.2,36.0,29.86,North,349,3.0,-999.0,79,0.00,,,0.00,Custom/Perl,2013-03-16 15:25:00,
2013-03-16 10:30:00,40.7,36.3,29.86,NNE,31,6.0,-999.0,78,0.00,,,0.00,Custom/Perl,2013-03-16 15:30:00,
2013-03-16 10:35:00,40.9,36.1,29.86,North,350,5.0,-999.0,76,0.00,,,0.00,Custom/Perl,2013-03-16 15:35:00,
2013-03-16 10:40:00,41.2,36.4,29.85,North,354,2.0,-999.0,76,0.00,,,0.00,Custom/Perl,2013-03-16 15:40:00,
2013-03-16 10:46:00,41.3,36.5,29.85,NNW,329,7.0,-999.0,76,0.00,,,0.00,Custom/Perl,2013-03-16 15:46:00,
2013-03-16 10:51:00,41.2,36.4,29.85,North,350,3.0,-999.0,76,0.00,,,0.00,Custom/Perl,2013-03-16 15:51:00,
2013-03-16 10:57:00,41.5,36.5,29.86,North,1,5.0,-999.0,75,0.00,,,0.00,Custom/Perl,2013-03-16 15:57:00,
2013-03-16 11:02:00,41.7,36.7,29.86,NE,47,1.0,-999.0,75,0.00,,,0.00,Custom/Perl,2013-03-16 16:02:00,
2013-03-16 11:08:00,41.9,36.7,29.88,NNE,22,5.0,-999.0,74,0.00,,,0.00,Custom/Perl,2013-03-16 16:08:00,
2013-03-16 11:13:00,41.5,36.5,29.88,NW,317,4.0,-999.0,75,0.00,,,0.00,Custom/Perl,2013-03-16 16:13:00,
2013-03-16 11:18:00,41.4,36.4,29.88,NE,49,1.0,-999.0,75,0.00,,,0.00,Custom/Perl,2013-03-16 16:18:00,
2013-03-16 11:24:00,41.1,36.1,29.88,ENE,75,4.0,-999.0,75,0.00,,,0.00,Custom/Perl,2013-03-16 16:24:00,
2013-03-16 11:29:00,41.0,36.2,29.87,WSW,255,3.0,-999.0,76,0.00,,,0.00,Custom/Perl,2013-03-16 16:29:00,
2013-03-16 11:34:00,41.1,36.3,29.87,North,352,2.0,-999.0,76,0.00,,,0.00,Custom/Perl,2013-03-16 16:34:00,
2013-03-16 11:39:00,41.3,36.5,29.87,WSW,252,0.0,-999.0,76,0.00,,,0.00,Custom/Perl,2013-03-16 16:39:00,
2013-03-16 11:45:00,41.6,36.4,29.88,ENE,62,3.0,-999.0,74,0.00,,,0.00,Custom/Perl,2013-03-16 16:45:00,
2013-03-16 11:50:00,41.7,36.5,29.89,NW,313,2.0,-999.0,74,0.00,,,0.00,Custom/Perl,2013-03-16 16:50:00,
2013-03-16 11:55:00,41.7,36.3,29.88,NNW,340,2.0,-999.0,73,0.00,,,0.00,Custom/Perl,2013-03-16 16:55:00,
2013-03-16 12:00:00,42.2,37.0,29.88,North,352,4.0,-999.0,74,0.00,,,0.00,Custom/Perl,2013-03-16 17:00:00,
2013-03-16 12:06:00,42.5,37.1,29.89,WNW,302,2.0,-999.0,73,0.00,,,0.00,Custom/Perl,2013-03-16 17:06:00,
2013-03-16 12:11:00,42.3,36.7,29.88,WNW,294,1.0,-999.0,72,0.00,,,0.00,Custom/Perl,2013-03-16 17:11:00,
2013-03-16 12:17:00,42.4,36.8,29.88,NNW,337,6.0,-999.0,72,0.00,,,0.00,Custom/Perl,2013-03-16 17:17:00,
2013-03-16 12:22:00,42.5,36.9,29.88,NW,311,3.0,-999.0,72,0.00,,,0.00,Custom/Perl,2013-03-16 17:22:00,
2013-03-16 12:27:00,42.7,37.1,29.88,NW,308,3.0,-999.0,72,0.00,,,0.00,Custom/Perl,2013-03-16 17:27:00,
2013-03-16 12:33:00,42.5,36.9,29.88,NE,39,2.0,-999.0,72,0.00,,,0.00,Custom/Perl,2013-03-16 17:33:00,
2013-03-16 12:38:00,42.6,36.8,29.88,NE,52,1.0,-999.0,71,0.00,,,0.00,Custom/Perl,2013-03-16 17:38:00,
2013-03-16 12:43:00,42.7,37.1,29.88,ENE,59,2.0,-999.0,72,0.00,,,0.00,Custom/Perl,2013-03-16 17:43:00,
2013-03-16 12:49:00,42.8,37.0,29.88,North,8,4.0,-999.0,71,0.00,,,0.00,Custom/Perl,2013-03-16 17:49:00,
2013-03-16 12:54:00,42.7,36.9,29.88,NW,317,6.0,-999.0,71,0.00,,,0.00,Custom/Perl,2013-03-16 17:54:00,
2013-03-16 12:59:00,42.6,37.0,29.88,NE,46,5.0,-999.0,72,0.00,,,0.00,Custom/Perl,2013-03-16 17:59:00,
2013-03-16 13:04:00,42.7,36.9,29.88,NW,319,4.0,-999.0,71,0.00,,,0.00,Custom/Perl,2013-03-16 18:04:00,
2013-03-16 13:10:00,42.6,36.8,29.89,North,356,3.0,-999.0,71,0.00,,,0.00,Custom/Perl,2013-03-16 18:10:00,
2013-03-16 13:15:00,42.5,36.7,29.89,NNW,346,5.0,-999.0,71,0.00,,,0.00,Custom/Perl,2013-03-16 18:15:00,
2013-03-16 13:20:00,42.5,36.9,29.89,North,6,5.0,-999.0,72,0.00,,,0.00,Custom/Perl,2013-03-16 18:20:00,
2013-03-16 13:26:00,42.5,36.9,29.89,North,4,5.0,-999.0,72,0.00,,,0.00,Custom/Perl,2013-03-16 18:26:00,
2013-03-16 13:31:00,42.4,36.8,29.89,WNW,302,2.0,-999.0,72,0.00,,,0.00,Custom/Perl,2013-03-16 18:31:00,
2013-03-16 13:37:00,42.1,36.7,29.89,NNW,340,2.0,-999.0,73,0.00,,,0.00,Custom/Perl,2013-03-16 18:37:00,
2013-03-16 13:42:00,42.0,36.6,29.89,NW,306,3.0,-999.0,73,0.00,,,0.00,Custom/Perl,2013-03-16 18:42:00,
2013-03-16 13:47:00,42.3,36.7,29.88,NNW,345,5.0,-999.0,72,0.00,,,0.00,Custom/Perl,2013-03-16 18:47:00,
2013-03-16 13:52:00,42.8,37.0,29.88,North,350,5.0,-999.0,71,0.00,,,0.00,Custom/Perl,2013-03-16 18:52:00,
2013-03-16 13:58:00,43.2,37.0,29.88,NE,38,4.0,-999.0,69,0.00,,,0.00,Custom/Perl,2013-03-16 18:58:00,
2013-03-16 14:03:00,43.2,37.2,29.88,NNW,329,4.0,-999.0,70,0.00,,,0.00,Custom/Perl,2013-03-16 19:03:00,
2013-03-16 14:08:00,43.4,37.2,29.87,NNW,340,5.0,-999.0,69,0.00,,,0.00,Custom/Perl,2013-03-16 19:08:00,
2013-03-16 14:14:00,43.9,37.5,29.87,NNW,340,5.0,-999.0,68,0.00,,,0.00,Custom/Perl,2013-03-16 19:14:00,
2013-03-16 14:19:00,44.2,37.4,29.87,ENE,66,5.0,-999.0,66,0.00,,,0.00,Custom/Perl,2013-03-16 19:19:00,
2013-03-16 14:24:00,44.5,37.7,29.87,North,349,6.0,-999.0,66,0.00,,,0.00,Custom/Perl,2013-03-16 19:24:00,
2013-03-16 14:30:00,45.0,38.0,29.86,NNE,15,2.0,-999.0,65,0.00,,,0.00,Custom/Perl,2013-03-16 19:30:00,
2013-03-16 14:35:00,45.5,38.3,29.86,NNW,347,3.0,-999.0,64,0.00,,,0.00,Custom/Perl,2013-03-16 19:35:00,
2013-03-16 14:40:00,45.6,38.0,29.86,NNW,344,3.0,-999.0,62,0.00,,,0.00,Custom/Perl,2013-03-16 19:40:00,
2013-03-16 14:45:00,45.5,37.9,29.86,NNW,328,2.0,-999.0,62,0.00,,,0.00,Custom/Perl,2013-03-16 19:45:00,
2013-03-16 14:51:00,45.3,37.7,29.85,West,280,0.0,-999.0,62,0.00,,,0.00,Custom/Perl,2013-03-16 19:51:00,
2013-03-16 14:56:00,45.5,37.7,29.86,NNE,32,5.0,-999.0,61,0.00,,,0.00,Custom/Perl,2013-03-16 19:56:00,
2013-03-16 15:02:00,45.9,38.1,29.85,NNE,12,2.0,-999.0,61,0.00,,,0.00,Custom/Perl,2013-03-16 20:02:00,
2013-03-16 15:07:00,46.5,38.5,29.85,NW,326,2.0,-999.0,60,0.00,,,0.00,Custom/Perl,2013-03-16 20:07:00,
2013-03-16 15:12:00,46.8,38.6,29.85,North,10,2.0,-999.0,59,0.00,,,0.00,Custom/Perl,2013-03-16 20:12:00,
2013-03-16 15:17:00,46.8,38.6,29.85,North,354,2.0,-999.0,59,0.00,,,0.00,Custom/Perl,2013-03-16 20:17:00,
2013-03-16 15:23:00,47.1,38.9,29.85,North,351,1.0,-999.0,59,0.00,,,0.00,Custom/Perl,2013-03-16 20:23:00,
2013-03-16 15:28:00,47.6,39.2,29.85,East,96,1.0,-999.0,58,0.00,,,0.00,Custom/Perl,2013-03-16 20:28:00,
2013-03-16 15:33:00,48.0,39.4,29.85,WNW,290,2.0,-999.0,57,0.00,,,0.00,Custom/Perl,2013-03-16 20:33:00,
2013-03-16 15:39:00,47.6,38.8,29.85,NE,41,4.0,-999.0,56,0.00,,,0.00,Custom/Perl,2013-03-16 20:39:00,
2013-03-16 15:44:00,47.3,38.7,29.85,NNE,16,3.0,-999.0,57,0.00,,,0.00,Custom/Perl,2013-03-16 20:44:00,
2013-03-16 15:49:00,47.1,38.5,29.85,North,359,1.0,-999.0,57,0.00,,,0.00,Custom/Perl,2013-03-16 20:49:00,
2013-03-16 15:54:00,47.2,38.8,29.85,NE,36,5.0,-999.0,58,0.00,,,0.00,Custom/Perl,2013-03-16 20:54:00,
2013-03-16 15:59:00,47.3,38.7,29.85,NE,34,2.0,-999.0,57,0.00,,,0.00,Custom/Perl,2013-03-16 20:59:00,
2013-03-16 16:05:00,47.1,38.3,29.86,NNW,330,4.0,-999.0,56,0.00,,,0.00,Custom/Perl,2013-03-16 21:05:00,
2013-03-16 16:10:00,47.2,38.6,29.86,NW,307,3.0,-999.0,57,0.00,,,0.00,Custom/Perl,2013-03-16 21:10:00,
2013-03-16 16:15:00,46.9,38.5,29.86,ENE,75,3.0,-999.0,58,0.00,,,0.00,Custom/Perl,2013-03-16 21:15:00,
2013-03-16 16:20:00,46.6,38.2,29.87,NE,48,4.0,-999.0,58,0.00,,,0.00,Custom/Perl,2013-03-16 21:20:00,
2013-03-16 16:26:00,46.4,38.0,29.87,North,357,3.0,-999.0,58,0.00,,,0.00,Custom/Perl,2013-03-16 21:26:00,
2013-03-16 16:31:00,46.1,37.7,29.87,SE,139,0.0,-999.0,58,0.00,,,0.00,Custom/Perl,2013-03-16 21:31:00,
2013-03-16 16:36:00,46.0,37.8,29.87,NNE,22,2.0,-999.0,59,0.00,,,0.00,Custom/Perl,2013-03-16 21:36:00,
2013-03-16 16:42:00,46.0,37.8,29.87,NNE,13,5.0,-999.0,59,0.00,,,0.00,Custom/Perl,2013-03-16 21:42:00,
2013-03-16 16:47:00,45.6,37.4,29.87,NNE,18,3.0,-999.0,59,0.00,,,0.00,Custom/Perl,2013-03-16 21:47:00,
2013-03-16 16:52:00,45.5,37.3,29.87,West,281,1.0,-999.0,59,0.00,,,0.00,Custom/Perl,2013-03-16 21:52:00,
2013-03-16 16:58:00,45.1,37.1,29.87,NNW,347,4.0,-999.0,60,0.00,,,0.00,Custom/Perl,2013-03-16 21:58:00,
2013-03-16 17:03:00,44.8,37.0,29.87,NE,45,3.0,-999.0,61,0.00,,,0.00,Custom/Perl,2013-03-16 22:03:00,
2013-03-16 17:08:00,44.7,36.9,29.87,East,96,3.0,-999.0,61,0.00,,,0.00,Custom/Perl,2013-03-16 22:08:00,
2013-03-16 17:13:00,44.3,36.7,29.87,NNE,17,4.0,-999.0,62,0.00,,,0.00,Custom/Perl,2013-03-16 22:13:00,
2013-03-16 17:19:00,44.1,36.5,29.87,West,281,0.0,-999.0,62,0.00,,,0.00,Custom/Perl,2013-03-16 22:19:00,
2013-03-16 17:24:00,44.0,36.2,29.87,NNE,15,5.0,-999.0,61,0.00,,,0.00,Custom/Perl,2013-03-16 22:24:00,
2013-03-16 17:29:00,43.7,36.1,29.87,NNE,18,6.0,-999.0,62,0.00,,,0.00,Custom/Perl,2013-03-16 22:29:00,
2013-03-16 17:35:00,43.5,36.1,29.87,ENE,57,2.0,-999.0,63,0.00,,,0.00,Custom/Perl,2013-03-16 22:35:00,
2013-03-16 17:40:00,43.2,35.8,29.87,North,356,3.0,-999.0,63,0.00,,,0.00,Custom/Perl,2013-03-16 22:40:00,
2013-03-16 17:45:00,43.1,35.9,29.86,NW,308,2.0,-999.0,64,0.00,,,0.00,Custom/Perl,2013-03-16 22:45:00,
2013-03-16 17:50:00,43.1,35.9,29.86,NNW,346,3.0,-999.0,64,0.00,,,0.00,Custom/Perl,2013-03-16 22:50:00,
2013-03-16 17:56:00,42.9,35.7,29.86,SSE,159,2.0,-999.0,64,0.00,,,0.00,Custom/Perl,2013-03-16 22:56:00,
2013-03-16 18:01:00,42.7,35.5,29.86,NW,319,2.0,-999.0,64,0.00,,,0.00,Custom/Perl,2013-03-16 23:01:00,
2013-03-16 18:07:00,42.5,35.5,29.86,West,266,5.0,-999.0,65,0.00,,,0.00,Custom/Perl,2013-03-16 23:07:00,
2013-03-16 18:12:00,42.3,35.3,29.86,WNW,297,3.0,-999.0,65,0.00,,,0.00,Custom/Perl,2013-03-16 23:12:00,
2013-03-16 18:17:00,42.2,35.2,29.87,NW,304,2.0,-999.0,65,0.00,,,0.00,Custom/Perl,2013-03-16 23:17:00,
2013-03-16 18:23:00,42.1,35.1,29.87,NW,310,3.0,-999.0,65,0.00,,,0.00,Custom/Perl,2013-03-16 23:23:00,
2013-03-16 18:28:00,41.9,35.1,29.87,ENE,58,3.0,-999.0,66,0.00,,,0.00,Custom/Perl,2013-03-16 23:28:00,
2013-03-16 18:33:00,41.8,34.8,29.88,North,352,5.0,-999.0,65,0.00,,,0.00,Custom/Perl,2013-03-16 23:33:00,
2013-03-16 18:38:00,41.6,34.6,29.88,North,360,1.0,-999.0,65,0.00,,,0.00,Custom/Perl,2013-03-16 23:38:00,
2013-03-16 18:44:00,41.5,34.5,29.89,North,5,4.0,-999.0,65,0.00,,,0.00,Custom/Perl,2013-03-16 23:44:00,
2013-03-16 18:49:00,41.3,34.3,29.88,NE,34,3.0,-999.0,65,0.00,,,0.00,Custom/Perl,2013-03-16 23:49:00,
2013-03-16 18:54:00,41.2,34.2,29.88,NE,43,8.0,-999.0,65,0.00,,,0.00,Custom/Perl,2013-03-16 23:54:00,
2013-03-16 18:59:00,40.7,34.1,29.88,North,10,2.0,-999.0,67,0.00,,,0.00,Custom/Perl,2013-03-16 23:59:00,
2013-03-16 19:05:00,40.5,33.9,29.88,NNE,12,3.0,-999.0,67,0.00,,,0.00,Custom/Perl,2013-03-17 00:05:00,
2013-03-16 19:10:00,40.4,34.0,29.89,NW,326,2.0,-999.0,68,0.00,,,0.00,Custom/Perl,2013-03-17 00:10:00,
2013-03-16 19:15:00,40.4,33.8,29.88,North,349,0.0,-999.0,67,0.00,,,0.00,Custom/Perl,2013-03-17 00:15:00,
2013-03-16 19:20:00,40.4,33.6,29.88,North,3,6.0,-999.0,66,0.00,,,0.00,Custom/Perl,2013-03-17 00:20:00,
2013-03-16 19:25:00,40.3,33.5,29.88,South,187,2.0,-999.0,66,0.00,,,0.00,Custom/Perl,2013-03-17 00:25:00,
2013-03-16 19:31:00,40.2,33.4,29.88,NE,42,2.0,-999.0,66,0.00,,,0.00,Custom/Perl,2013-03-17 00:31:00,
2013-03-16 19:36:00,40.1,33.3,29.88,NE,37,3.0,-999.0,66,0.00,,,0.00,Custom/Perl,2013-03-17 00:36:00,
2013-03-16 19:41:00,39.9,33.1,29.88,North,4,2.0,-999.0,66,0.00,,,0.00,Custom/Perl,2013-03-17 00:41:00,
2013-03-16 19:47:00,39.8,33.0,29.88,NNW,345,3.0,-999.0,66,0.00,,,0.00,Custom/Perl,2013-03-17 00:47:00,
2013-03-16 19:52:00,39.7,33.1,29.88,NNW,343,2.0,-999.0,67,0.00,,,0.00,Custom/Perl,2013-03-17 00:52:00,
2013-03-16 19:57:00,39.6,32.8,29.89,NW,321,6.0,-999.0,66,0.00,,,0.00,Custom/Perl,2013-03-17 00:57:00,
2013-03-16 20:02:00,39.6,33.0,29.89,NW,324,2.0,-999.0,67,0.00,,,0.00,Custom/Perl,2013-03-17 01:02:00,
2013-03-16 20:08:00,39.5,32.9,29.90,SW,228,7.0,-999.0,67,0.00,,,0.00,Custom/Perl,2013-03-17 01:08:00,
2013-03-16 20:13:00,39.4,32.8,29.90,North,358,3.0,-999.0,67,0.00,,,0.00,Custom/Perl,2013-03-17 01:13:00,
2013-03-16 20:18:00,39.4,32.8,29.91,West,275,1.0,-999.0,67,0.00,,,0.00,Custom/Perl,2013-03-17 01:18:00,
2013-03-16 20:24:00,39.4,32.8,29.91,North,3,2.0,-999.0,67,0.00,,,0.00,Custom/Perl,2013-03-17 01:24:00,
2013-03-16 20:29:00,39.3,32.7,29.91,NE,37,3.0,-999.0,67,0.00,,,0.00,Custom/Perl,2013-03-17 01:29:00,
2013-03-16 20:34:00,39.3,32.7,29.91,NNW,329,4.0,-999.0,67,0.00,,,0.00,Custom/Perl,2013-03-17 01:34:00,
2013-03-16 20:40:00,39.2,32.6,29.91,NNE,15,2.0,-999.0,67,0.00,,,0.00,Custom/Perl,2013-03-17 01:40:00,
2013-03-16 20:45:00,39.2,32.6,29.91,North,4,3.0,-999.0,67,0.00,,,0.00,Custom/Perl,2013-03-17 01:45:00,
2013-03-16 20:50:00,39.1,32.5,29.91,North,350,3.0,-999.0,67,0.00,,,0.00,Custom/Perl,2013-03-17 01:50:00,
2013-03-16 20:56:00,39.1,32.5,29.91,NNW,334,3.0,-999.0,67,0.00,,,0.00,Custom/Perl,2013-03-17 01:56:00,
2013-03-16 21:01:00,39.0,32.4,29.92,NNW,338,2.0,-999.0,67,0.00,,,0.00,Custom/Perl,2013-03-17 02:01:00,
2013-03-16 21:06:00,38.9,32.3,29.92,ENE,70,2.0,-999.0,67,0.00,,,0.00,Custom/Perl,2013-03-17 02:06:00,
2013-03-16 21:11:00,38.9,32.3,29.92,NNE,23,2.0,-999.0,67,0.00,,,0.00,Custom/Perl,2013-03-17 02:11:00,
2013-03-16 21:16:00,38.9,32.3,29.92,North,8,3.0,-999.0,67,0.00,,,0.00,Custom/Perl,2013-03-17 02:16:00,
2013-03-16 21:22:00,38.9,32.5,29.92,NE,43,5.0,-999.0,68,0.00,,,0.00,Custom/Perl,2013-03-17 02:22:00,
2013-03-16 21:27:00,38.5,32.1,29.92,NE,50,6.0,-999.0,68,0.00,,,0.00,Custom/Perl,2013-03-17 02:27:00,
2013-03-16 21:32:00,38.1,31.9,29.92,NW,318,6.0,-999.0,69,0.00,,,0.00,Custom/Perl,2013-03-17 02:32:00,
2013-03-16 21:38:00,37.8,31.6,29.92,NNE,18,6.0,-999.0,69,0.00,,,0.00,Custom/Perl,2013-03-17 02:38:00,
2013-03-16 21:43:00,37.6,31.6,29.92,NW,318,4.0,-999.0,70,0.00,,,0.00,Custom/Perl,2013-03-17 02:43:00,
2013-03-16 21:48:00,37.3,31.3,29.92,ENE,63,4.0,-999.0,70,0.00,,,0.00,Custom/Perl,2013-03-17 02:48:00,
2013-03-16 21:53:00,37.2,31.2,29.92,NNE,15,9.0,-999.0,70,0.00,,,0.00,Custom/Perl,2013-03-17 02:53:00,
2013-03-16 21:59:00,37.0,31.0,29.93,NNE,20,4.0,-999.0,70,0.00,,,0.00,Custom/Perl,2013-03-17 02:59:00,
2013-03-16 22:04:00,36.9,31.1,29.92,ENE,65,5.0,-999.0,71,0.00,,,0.00,Custom/Perl,2013-03-17 03:04:00,
2013-03-16 22:09:00,36.8,31.0,29.92,NW,307,1.0,-999.0,71,0.00,,,0.00,Custom/Perl,2013-03-17 03:09:00,
2013-03-16 22:14:00,36.7,30.9,29.92,NW,320,2.0,-999.0,71,0.00,,,0.00,Custom/Perl,2013-03-17 03:14:00,
2013-03-16 22:19:00,36.6,30.8,29.92,NNE,23,5.0,-999.0,71,0.00,,,0.00,Custom/Perl,2013-03-17 03:19:00,
2013-03-16 22:24:00,36.5,30.7,29.92,NE,49,6.0,-999.0,71,0.00,,,0.00,Custom/Perl,2013-03-17 03:24:00,
2013-03-16 22:30:00,36.4,30.8,29.93,NW,313,3.0,-999.0,72,0.00,,,0.00,Custom/Perl,2013-03-17 03:30:00,
2013-03-16 22:35:00,36.3,30.7,29.93,NNE,29,5.0,-999.0,72,0.00,,,0.00,Custom/Perl,2013-03-17 03:35:00,
2013-03-16 22:40:00,36.2,30.6,29.93,North,4,3.0,-999.0,72,0.00,,,0.00,Custom/Perl,2013-03-17 03:40:00,
2013-03-16 22:46:00,36.1,30.5,29.93,WNW,297,5.0,-999.0,72,0.00,,,0.00,Custom/Perl,2013-03-17 03:46:00,
2013-03-16 22:51:00,36.1,30.5,29.93,NW,314,5.0,-999.0,72,0.00,,,0.00,Custom/Perl,2013-03-17 03:51:00,
2013-03-16 22:56:00,36.0,30.4,29.93,North,349,6.0,-999.0,72,0.00,,,0.00,Custom/Perl,2013-03-17 03:56:00,
2013-03-16 23:00:00,35.9,30.3,29.93,WNW,293,5.0,-999.0,72,0.00,,,0.00,Custom/Perl,2013-03-17 04:00:00,
2013-03-16 23:01:00,35.9,30.3,29.94,NE,41,4.0,-999.0,72,0.00,,,0.00,Custom/Perl,2013-03-17 04:01:00,
2013-03-16 23:03:00,35.8,30.2,29.94,North,359,3.0,-999.0,72,0.00,,,0.00,Custom/Perl,2013-03-17 04:03:00,
2013-03-16 23:08:00,35.8,30.2,29.93,NNE,20,8.0,-999.0,72,0.00,,,0.00,Custom/Perl,2013-03-17 04:08:00,
2013-03-16 23:14:00,35.7,30.1,29.93,ESE,109,5.0,-999.0,72,0.00,,,0.00,Custom/Perl,2013-03-17 04:14:00,
2013-03-16 23:19:00,35.7,30.1,29.93,NNW,328,6.0,-999.0,72,0.00,,,0.00,Custom/Perl,2013-03-17 04:19:00,
2013-03-16 23:24:00,35.6,30.2,29.94,WNW,299,2.0,-999.0,73,0.00,,,0.00,Custom/Perl,2013-03-17 04:24:00,
2013-03-16 23:29:00,35.6,30.0,29.94,NE,42,5.0,-999.0,72,0.00,,,0.00,Custom/Perl,2013-03-17 04:29:00,
2013-03-16 23:35:00,35.5,29.9,29.94,NNE,18,6.0,-999.0,72,0.00,,,0.00,Custom/Perl,2013-03-17 04:35:00,
2013-03-16 23:40:00,35.5,30.1,29.94,NNE,14,4.0,-999.0,73,0.00,,,0.00,Custom/Perl,2013-03-17 04:40:00,
2013-03-16 23:45:00,35.5,29.9,29.94,North,1,3.0,-999.0,72,0.00,,,0.00,Custom/Perl,2013-03-17 04:45:00,
2013-03-16 23:50:00,35.5,30.1,29.94,NE,49,1.0,-999.0,73,0.00,,,0.00,Custom/Perl,2013-03-17 04:50:00,
2013-03-16 23:56:00,35.4,30.0,29.94,NW,316,2.0,-999.0,73,0.00,,,0.00,Custom/Perl,2013-03-17 04:56:00,